Oliverea, New York
Current Conditions -  °F | °C
As of 7:35 AM on Friday 21 Nov 2014 (Local Time) from KMSV Reporting Station
Scattered Clouds Scattered Clouds  
Wind Chill:   Ceiling: Unl
Heat Index: 18°   Visibility: 10mi
Dew Point: 10°   Wind: 9mph
Humidity: 73%   Direction: 280°W
Pressure: 30.12"   Gusts: NA
Location:  42.1356°N, 74.4393°W
Report Text: KMSV 211235Z AUTO 28008KT 250V310 10SM SCT029 M08/M12 A3012 RMK AO1
Loading
Personal Weather Stations






























Interactive Weather Map New forecast layout! Learn more

10-Day Weather Forecast

Advertisements
Track Severe Weather on mobile